sensor_id;sensor_type;location;lat;lon;timestamp;P1;durP1;ratioP1;P2;durP2;ratioP2
19406;SDS011;9839;53.364;-1.204;2023-04-24T00:01:45;11.83;;;2.40;;
19406;SDS011;9839;53.364;-1.204;2023-04-24T00:04:10;7.40;;;2.60;;
19406;SDS011;9839;53.364;-1.204;2023-04-24T00:06:38;12.03;;;2.60;;
19406;SDS011;9839;53.364;-1.204;2023-04-24T00:09:07;11.70;;;2.33;;
19406;SDS011;9839;53.364;-1.204;2023-04-24T00:11:35;11.17;;;2.50;;
19406;SDS011;9839;53.364;-1.204;2023-04-24T00:14:00;17.73;;;2.63;;
19406;SDS011;9839;53.364;-1.204;2023-04-24T00:16:26;7.90;;;1.90;;
19406;SDS011;9839;53.364;-1.204;2023-04-24T00:18:51;15.07;;;2.10;;
19406;SDS011;9839;53.364;-1.204;2023-04-24T00:21:21;8.57;;;1.83;;
19406;SDS011;9839;53.364;-1.204;2023-04-24T00:23:47;6.30;;;2.50;;
19406;SDS011;9839;53.364;-1.204;2023-04-24T00:26:13;7.93;;;1.70;;
19406;SDS011;9839;53.364;-1.204;2023-04-24T00:28:38;7.07;;;1.50;;
19406;SDS011;9839;53.364;-1.204;2023-04-24T00:31:04;4.77;;;1.43;;
19406;SDS011;9839;53.364;-1.204;2023-04-24T00:33:29;6.87;;;1.80;;
19406;SDS011;9839;53.364;-1.204;2023-04-24T00:35:55;10.93;;;1.60;;
19406;SDS011;9839;53.364;-1.204;2023-04-24T00:38:20;9.67;;;1.60;;
19406;SDS011;9839;53.364;-1.204;2023-04-24T00:40:47;7.87;;;1.47;;
19406;SDS011;9839;53.364;-1.204;2023-04-24T00:43:13;7.20;;;1.47;;
19406;SDS011;9839;53.364;-1.204;2023-04-24T00:45:38;7.83;;;1.80;;
19406;SDS011;9839;53.364;-1.204;2023-04-24T00:48:04;5.70;;;1.50;;
19406;SDS011;9839;53.364;-1.204;2023-04-24T00:50:29;5.70;;;1.60;;
19406;SDS011;9839;53.364;-1.204;2023-04-24T00:52:55;5.17;;;1.33;;
19406;SDS011;9839;53.364;-1.204;2023-04-24T00:55:20;6.10;;;1.23;;
19406;SDS011;9839;53.364;-1.204;2023-04-24T00:57:46;8.33;;;1.33;;
19406;SDS011;9839;53.364;-1.204;2023-04-24T01:00:12;8.17;;;1.80;;
19406;SDS011;9839;53.364;-1.204;2023-04-24T01:02:39;5.97;;;1.40;;
19406;SDS011;9839;53.364;-1.204;2023-04-24T01:05:08;6.77;;;1.90;;
19406;SDS011;9839;53.364;-1.204;2023-04-24T01:07:34;6.57;;;1.90;;
19406;SDS011;9839;53.364;-1.204;2023-04-24T01:10:00;3.37;;;1.20;;
19406;SDS011;9839;53.364;-1.204;2023-04-24T01:12:26;6.83;;;1.10;;
19406;SDS011;9839;53.364;-1.204;2023-04-24T01:14:52;6.13;;;1.53;;
19406;SDS011;9839;53.364;-1.204;2023-04-24T01:17:17;9.80;;;1.60;;
19406;SDS011;9839;53.364;-1.204;2023-04-24T01:19:42;8.57;;;1.70;;
19406;SDS011;9839;53.364;-1.204;2023-04-24T01:22:15;5.90;;;1.50;;
19406;SDS011;9839;53.364;-1.204;2023-04-24T01:24:42;7.77;;;1.50;;
19406;SDS011;9839;53.364;-1.204;2023-04-24T01:27:08;6.10;;;1.57;;
19406;SDS011;9839;53.364;-1.204;2023-04-24T01:29:35;11.60;;;2.00;;
19406;SDS011;9839;53.364;-1.204;2023-04-24T01:32:00;9.17;;;1.60;;
19406;SDS011;9839;53.364;-1.204;2023-04-24T01:34:27;5.27;;;1.50;;
19406;SDS011;9839;53.364;-1.204;2023-04-24T01:36:53;7.63;;;1.50;;
19406;SDS011;9839;53.364;-1.204;2023-04-24T01:39:18;4.20;;;1.07;;
19406;SDS011;9839;53.364;-1.204;2023-04-24T01:41:45;9.33;;;2.90;;
19406;SDS011;9839;53.364;-1.204;2023-04-24T01:44:11;3.47;;;1.10;;
19406;SDS011;9839;53.364;-1.204;2023-04-24T01:46:36;6.60;;;1.50;;
19406;SDS011;9839;53.364;-1.204;2023-04-24T01:49:02;3.70;;;1.30;;
19406;SDS011;9839;53.364;-1.204;2023-04-24T01:51:28;4.67;;;1.37;;
19406;SDS011;9839;53.364;-1.204;2023-04-24T01:53:53;6.43;;;1.40;;
19406;SDS011;9839;53.364;-1.204;2023-04-24T01:56:22;3.47;;;1.70;;
19406;SDS011;9839;53.364;-1.204;2023-04-24T01:58:48;2.97;;;1.17;;
19406;SDS011;9839;53.364;-1.204;2023-04-24T02:01:17;4.37;;;1.30;;
19406;SDS011;9839;53.364;-1.204;2023-04-24T02:03:44;4.70;;;1.60;;
19406;SDS011;9839;53.364;-1.204;2023-04-24T02:06:09;3.63;;;1.30;;
19406;SDS011;9839;53.364;-1.204;2023-04-24T02:08:35;6.30;;;1.60;;
19406;SDS011;9839;53.364;-1.204;2023-04-24T02:11:00;8.23;;;1.37;;
19406;SDS011;9839;53.364;-1.204;2023-04-24T02:13:27;8.17;;;1.57;;
19406;SDS011;9839;53.364;-1.204;2023-04-24T02:15:53;4.70;;;1.37;;
19406;SDS011;9839;53.364;-1.204;2023-04-24T02:18:18;4.37;;;1.47;;
19406;SDS011;9839;53.364;-1.204;2023-04-24T02:20:43;5.30;;;1.20;;
19406;SDS011;9839;53.364;-1.204;2023-04-24T02:23:09;3.07;;;1.13;;
19406;SDS011;9839;53.364;-1.204;2023-04-24T02:25:34;7.33;;;1.17;;
19406;SDS011;9839;53.364;-1.204;2023-04-24T02:28:00;5.47;;;1.40;;
19406;SDS011;9839;53.364;-1.204;2023-04-24T02:30:25;5.17;;;1.17;;
19406;SDS011;9839;53.364;-1.204;2023-04-24T02:32:51;5.33;;;1.10;;
19406;SDS011;9839;53.364;-1.204;2023-04-24T02:35:16;2.87;;;1.30;;
19406;SDS011;9839;53.364;-1.204;2023-04-24T02:37:42;6.93;;;1.50;;
19406;SDS011;9839;53.364;-1.204;2023-04-24T02:40:08;8.23;;;1.40;;
19406;SDS011;9839;53.364;-1.204;2023-04-24T02:42:34;9.83;;;1.77;;
19406;SDS011;9839;53.364;-1.204;2023-04-24T02:44:59;6.17;;;1.40;;
19406;SDS011;9839;53.364;-1.204;2023-04-24T02:47:25;11.60;;;1.50;;
19406;SDS011;9839;53.364;-1.204;2023-04-24T02:49:50;4.87;;;1.30;;
19406;SDS011;9839;53.364;-1.204;2023-04-24T02:52:15;7.07;;;1.40;;
19406;SDS011;9839;53.364;-1.204;2023-04-24T02:54:41;2.83;;;1.30;;
19406;SDS011;9839;53.364;-1.204;2023-04-24T02:57:07;4.67;;;1.30;;
19406;SDS011;9839;53.364;-1.204;2023-04-24T02:59:33;7.07;;;1.27;;
19406;SDS011;9839;53.364;-1.204;2023-04-24T03:01:59;4.50;;;1.00;;
19406;SDS011;9839;53.364;-1.204;2023-04-24T03:04:24;3.17;;;0.90;;
19406;SDS011;9839;53.364;-1.204;2023-04-24T03:06:50;6.37;;;1.50;;
19406;SDS011;9839;53.364;-1.204;2023-04-24T03:09:18;5.27;;;1.90;;
19406;SDS011;9839;53.364;-1.204;2023-04-24T03:11:43;6.77;;;1.40;;
19406;SDS011;9839;53.364;-1.204;2023-04-24T03:14:09;3.50;;;1.23;;
19406;SDS011;9839;53.364;-1.204;2023-04-24T03:16:34;5.10;;;1.40;;
19406;SDS011;9839;53.364;-1.204;2023-04-24T03:19:00;3.80;;;1.20;;
19406;SDS011;9839;53.364;-1.204;2023-04-24T03:21:25;7.83;;;1.33;;
19406;SDS011;9839;53.364;-1.204;2023-04-24T03:23:51;6.83;;;1.47;;
19406;SDS011;9839;53.364;-1.204;2023-04-24T03:26:17;6.37;;;1.60;;
19406;SDS011;9839;53.364;-1.204;2023-04-24T03:28:42;6.07;;;1.20;;
19406;SDS011;9839;53.364;-1.204;2023-04-24T03:31:07;9.73;;;1.43;;
19406;SDS011;9839;53.364;-1.204;2023-04-24T03:33:33;6.13;;;1.30;;
19406;SDS011;9839;53.364;-1.204;2023-04-24T03:35:58;5.50;;;1.50;;
19406;SDS011;9839;53.364;-1.204;2023-04-24T03:38:24;3.23;;;0.90;;
19406;SDS011;9839;53.364;-1.204;2023-04-24T03:40:49;5.83;;;1.77;;
19406;SDS011;9839;53.364;-1.204;2023-04-24T03:43:15;3.33;;;1.00;;
19406;SDS011;9839;53.364;-1.204;2023-04-24T03:45:40;2.90;;;1.10;;
19406;SDS011;9839;53.364;-1.204;2023-04-24T03:48:06;6.77;;;1.70;;
19406;SDS011;9839;53.364;-1.204;2023-04-24T03:50:32;7.97;;;1.60;;
19406;SDS011;9839;53.364;-1.204;2023-04-24T03:52:58;7.67;;;1.40;;
19406;SDS011;9839;53.364;-1.204;2023-04-24T03:55:23;7.40;;;1.60;;
19406;SDS011;9839;53.364;-1.204;2023-04-24T03:57:49;4.30;;;1.17;;
19406;SDS011;9839;53.364;-1.204;2023-04-24T04:00:14;8.23;;;1.57;;
19406;SDS011;9839;53.364;-1.204;2023-04-24T04:02:40;7.57;;;1.60;;
19406;SDS011;9839;53.364;-1.204;2023-04-24T04:05:06;10.40;;;1.60;;
19406;SDS011;9839;53.364;-1.204;2023-04-24T04:07:33;7.47;;;1.50;;
19406;SDS011;9839;53.364;-1.204;2023-04-24T04:09:58;9.07;;;1.43;;
19406;SDS011;9839;53.364;-1.204;2023-04-24T04:12:24;8.07;;;1.60;;
19406;SDS011;9839;53.364;-1.204;2023-04-24T04:14:49;6.97;;;1.60;;
19406;SDS011;9839;53.364;-1.204;2023-04-24T04:17:15;7.77;;;2.00;;
19406;SDS011;9839;53.364;-1.204;2023-04-24T04:19:40;5.93;;;1.33;;
19406;SDS011;9839;53.364;-1.204;2023-04-24T04:22:06;5.43;;;1.47;;
19406;SDS011;9839;53.364;-1.204;2023-04-24T04:24:33;6.57;;;1.80;;
19406;SDS011;9839;53.364;-1.204;2023-04-24T04:26:58;9.97;;;2.20;;
19406;SDS011;9839;53.364;-1.204;2023-04-24T04:29:24;12.13;;;2.03;;
19406;SDS011;9839;53.364;-1.204;2023-04-24T04:31:50;6.03;;;1.30;;
19406;SDS011;9839;53.364;-1.204;2023-04-24T04:34:16;5.87;;;1.53;;
19406;SDS011;9839;53.364;-1.204;2023-04-24T04:36:41;4.13;;;1.33;;
19406;SDS011;9839;53.364;-1.204;2023-04-24T04:39:07;9.83;;;1.77;;
19406;SDS011;9839;53.364;-1.204;2023-04-24T04:41:33;7.07;;;1.73;;
19406;SDS011;9839;53.364;-1.204;2023-04-24T04:44:00;6.37;;;1.67;;
19406;SDS011;9839;53.364;-1.204;2023-04-24T04:46:26;6.23;;;1.30;;
19406;SDS011;9839;53.364;-1.204;2023-04-24T04:48:52;5.77;;;1.13;;
19406;SDS011;9839;53.364;-1.204;2023-04-24T04:51:19;9.53;;;1.70;;
19406;SDS011;9839;53.364;-1.204;2023-04-24T04:53:44;7.50;;;1.60;;
19406;SDS011;9839;53.364;-1.204;2023-04-24T04:56:10;6.13;;;1.43;;
19406;SDS011;9839;53.364;-1.204;2023-04-24T04:58:35;6.10;;;1.50;;
19406;SDS011;9839;53.364;-1.204;2023-04-24T05:01:01;6.67;;;1.13;;
19406;SDS011;9839;53.364;-1.204;2023-04-24T05:03:27;7.17;;;1.40;;
19406;SDS011;9839;53.364;-1.204;2023-04-24T05:05:52;8.23;;;1.80;;
19406;SDS011;9839;53.364;-1.204;2023-04-24T05:08:18;4.27;;;1.37;;
19406;SDS011;9839;53.364;-1.204;2023-04-24T05:10:43;8.37;;;2.00;;
19406;SDS011;9839;53.364;-1.204;2023-04-24T05:13:08;10.50;;;1.50;;
19406;SDS011;9839;53.364;-1.204;2023-04-24T05:15:34;6.67;;;1.27;;
19406;SDS011;9839;53.364;-1.204;2023-04-24T05:18:00;6.43;;;1.30;;
19406;SDS011;9839;53.364;-1.204;2023-04-24T05:20:25;4.43;;;1.33;;
19406;SDS011;9839;53.364;-1.204;2023-04-24T05:22:50;8.23;;;2.00;;
19406;SDS011;9839;53.364;-1.204;2023-04-24T05:25:16;5.20;;;1.27;;
19406;SDS011;9839;53.364;-1.204;2023-04-24T05:27:41;7.03;;;1.30;;
19406;SDS011;9839;53.364;-1.204;2023-04-24T05:30:07;5.47;;;1.93;;
19406;SDS011;9839;53.364;-1.204;2023-04-24T05:32:33;4.97;;;1.60;;
19406;SDS011;9839;53.364;-1.204;2023-04-24T05:34:58;6.70;;;1.40;;
19406;SDS011;9839;53.364;-1.204;2023-04-24T05:37:24;3.10;;;1.50;;
19406;SDS011;9839;53.364;-1.204;2023-04-24T05:39:49;7.20;;;1.33;;
19406;SDS011;9839;53.364;-1.204;2023-04-24T05:42:14;4.60;;;1.40;;
19406;SDS011;9839;53.364;-1.204;2023-04-24T05:44:40;6.93;;;1.37;;
19406;SDS011;9839;53.364;-1.204;2023-04-24T05:47:05;5.83;;;1.57;;
19406;SDS011;9839;53.364;-1.204;2023-04-24T05:49:31;4.03;;;1.13;;
19406;SDS011;9839;53.364;-1.204;2023-04-24T05:51:56;7.40;;;1.30;;
19406;SDS011;9839;53.364;-1.204;2023-04-24T05:54:22;5.00;;;1.57;;
19406;SDS011;9839;53.364;-1.204;2023-04-24T05:56:48;7.07;;;1.33;;
19406;SDS011;9839;53.364;-1.204;2023-04-24T05:59:14;6.70;;;1.50;;
19406;SDS011;9839;53.364;-1.204;2023-04-24T06:01:40;4.03;;;1.60;;
19406;SDS011;9839;53.364;-1.204;2023-04-24T06:04:05;11.07;;;3.10;;
19406;SDS011;9839;53.364;-1.204;2023-04-24T06:06:31;5.67;;;1.50;;
19406;SDS011;9839;53.364;-1.204;2023-04-24T06:08:57;7.50;;;2.97;;
19406;SDS011;9839;53.364;-1.204;2023-04-24T06:11:23;6.17;;;1.53;;
19406;SDS011;9839;53.364;-1.204;2023-04-24T06:13:49;9.20;;;2.30;;
19406;SDS011;9839;53.364;-1.204;2023-04-24T06:16:15;6.60;;;1.73;;
19406;SDS011;9839;53.364;-1.204;2023-04-24T06:18:40;7.30;;;1.27;;
19406;SDS011;9839;53.364;-1.204;2023-04-24T06:21:06;8.43;;;1.93;;
19406;SDS011;9839;53.364;-1.204;2023-04-24T06:23:31;11.27;;;1.60;;
19406;SDS011;9839;53.364;-1.204;2023-04-24T06:25:58;5.00;;;1.57;;
19406;SDS011;9839;53.364;-1.204;2023-04-24T06:28:24;6.67;;;1.93;;
19406;SDS011;9839;53.364;-1.204;2023-04-24T06:30:49;12.50;;;2.03;;
19406;SDS011;9839;53.364;-1.204;2023-04-24T06:33:15;8.17;;;1.83;;
19406;SDS011;9839;53.364;-1.204;2023-04-24T06:35:41;12.27;;;1.80;;
19406;SDS011;9839;53.364;-1.204;2023-04-24T06:38:06;13.70;;;1.87;;
19406;SDS011;9839;53.364;-1.204;2023-04-24T06:40:32;6.33;;;1.43;;
19406;SDS011;9839;53.364;-1.204;2023-04-24T06:42:58;4.63;;;1.87;;
19406;SDS011;9839;53.364;-1.204;2023-04-24T06:45:25;8.10;;;2.07;;
19406;SDS011;9839;53.364;-1.204;2023-04-24T06:47:50;7.43;;;2.00;;
19406;SDS011;9839;53.364;-1.204;2023-04-24T06:50:16;8.53;;;1.63;;
19406;SDS011;9839;53.364;-1.204;2023-04-24T06:52:41;11.30;;;2.47;;
19406;SDS011;9839;53.364;-1.204;2023-04-24T06:55:07;7.63;;;2.07;;
19406;SDS011;9839;53.364;-1.204;2023-04-24T06:57:33;3.37;;;1.57;;
19406;SDS011;9839;53.364;-1.204;2023-04-24T06:59:58;9.03;;;1.70;;
19406;SDS011;9839;53.364;-1.204;2023-04-24T07:02:24;7.57;;;2.53;;
19406;SDS011;9839;53.364;-1.204;2023-04-24T07:04:49;10.23;;;2.20;;
19406;SDS011;9839;53.364;-1.204;2023-04-24T07:07:15;6.43;;;1.70;;
19406;SDS011;9839;53.364;-1.204;2023-04-24T07:09:41;9.53;;;2.03;;
19406;SDS011;9839;53.364;-1.204;2023-04-24T07:12:07;8.40;;;1.80;;
19406;SDS011;9839;53.364;-1.204;2023-04-24T07:14:33;9.20;;;2.10;;
19406;SDS011;9839;53.364;-1.204;2023-04-24T07:16:59;7.70;;;1.83;;
19406;SDS011;9839;53.364;-1.204;2023-04-24T07:19:24;8.57;;;2.10;;
19406;SDS011;9839;53.364;-1.204;2023-04-24T07:21:49;12.07;;;2.40;;
19406;SDS011;9839;53.364;-1.204;2023-04-24T07:24:15;10.23;;;3.10;;
19406;SDS011;9839;53.364;-1.204;2023-04-24T07:26:41;10.03;;;2.43;;
19406;SDS011;9839;53.364;-1.204;2023-04-24T07:29:06;11.93;;;2.23;;
19406;SDS011;9839;53.364;-1.204;2023-04-24T07:31:32;13.70;;;2.33;;
19406;SDS011;9839;53.364;-1.204;2023-04-24T07:33:58;12.17;;;3.13;;
19406;SDS011;9839;53.364;-1.204;2023-04-24T07:36:23;10.43;;;2.30;;
19406;SDS011;9839;53.364;-1.204;2023-04-24T07:38:50;8.43;;;2.40;;
19406;SDS011;9839;53.364;-1.204;2023-04-24T07:41:16;11.70;;;2.53;;
19406;SDS011;9839;53.364;-1.204;2023-04-24T07:43:41;9.17;;;2.20;;
19406;SDS011;9839;53.364;-1.204;2023-04-24T07:46:07;10.57;;;2.30;;
19406;SDS011;9839;53.364;-1.204;2023-04-24T07:48:33;10.40;;;2.43;;
19406;SDS011;9839;53.364;-1.204;2023-04-24T07:50:59;10.27;;;2.23;;
19406;SDS011;9839;53.364;-1.204;2023-04-24T07:53:24;10.70;;;2.33;;
19406;SDS011;9839;53.364;-1.204;2023-04-24T07:55:50;11.67;;;2.50;;
19406;SDS011;9839;53.364;-1.204;2023-04-24T07:58:15;15.53;;;2.73;;
19406;SDS011;9839;53.364;-1.204;2023-04-24T08:00:41;16.37;;;2.40;;
19406;SDS011;9839;53.364;-1.204;2023-04-24T08:03:06;12.60;;;2.57;;
19406;SDS011;9839;53.364;-1.204;2023-04-24T08:05:31;6.77;;;2.13;;
19406;SDS011;9839;53.364;-1.204;2023-04-24T08:07:58;9.00;;;2.23;;
19406;SDS011;9839;53.364;-1.204;2023-04-24T08:10:23;10.70;;;2.93;;
19406;SDS011;9839;53.364;-1.204;2023-04-24T08:12:49;13.73;;;2.87;;
19406;SDS011;9839;53.364;-1.204;2023-04-24T08:15:14;11.20;;;2.20;;
19406;SDS011;9839;53.364;-1.204;2023-04-24T08:17:40;9.37;;;2.07;;
19406;SDS011;9839;53.364;-1.204;2023-04-24T08:20:05;9.57;;;1.93;;
19406;SDS011;9839;53.364;-1.204;2023-04-24T08:22:35;9.47;;;2.87;;
19406;SDS011;9839;53.364;-1.204;2023-04-24T08:25:00;10.00;;;2.20;;
19406;SDS011;9839;53.364;-1.204;2023-04-24T08:27:26;14.67;;;3.67;;
19406;SDS011;9839;53.364;-1.204;2023-04-24T08:29:55;12.93;;;3.33;;
19406;SDS011;9839;53.364;-1.204;2023-04-24T08:32:21;11.17;;;2.07;;
19406;SDS011;9839;53.364;-1.204;2023-04-24T08:34:47;9.87;;;2.67;;
19406;SDS011;9839;53.364;-1.204;2023-04-24T08:37:12;9.90;;;2.83;;
19406;SDS011;9839;53.364;-1.204;2023-04-24T08:39:38;8.87;;;2.50;;
19406;SDS011;9839;53.364;-1.204;2023-04-24T08:42:04;14.33;;;2.90;;
19406;SDS011;9839;53.364;-1.204;2023-04-24T08:44:33;12.00;;;2.60;;
19406;SDS011;9839;53.364;-1.204;2023-04-24T08:46:59;16.97;;;3.27;;
19406;SDS011;9839;53.364;-1.204;2023-04-24T08:49:27;11.20;;;2.70;;
19406;SDS011;9839;53.364;-1.204;2023-04-24T08:51:53;9.07;;;2.40;;
19406;SDS011;9839;53.364;-1.204;2023-04-24T08:54:19;12.40;;;3.30;;
19406;SDS011;9839;53.364;-1.204;2023-04-24T08:56:45;11.63;;;2.70;;
19406;SDS011;9839;53.364;-1.204;2023-04-24T08:59:13;15.20;;;2.93;;
19406;SDS011;9839;53.364;-1.204;2023-04-24T09:01:40;5.93;;;2.37;;
19406;SDS011;9839;53.364;-1.204;2023-04-24T09:04:06;9.70;;;2.03;;
19406;SDS011;9839;53.364;-1.204;2023-04-24T09:06:34;8.30;;;1.90;;
19406;SDS011;9839;53.364;-1.204;2023-04-24T09:09:00;7.73;;;2.20;;
19406;SDS011;9839;53.364;-1.204;2023-04-24T09:11:26;13.17;;;2.93;;
19406;SDS011;9839;53.364;-1.204;2023-04-24T09:13:53;14.03;;;2.47;;
19406;SDS011;9839;53.364;-1.204;2023-04-24T09:16:19;11.80;;;2.20;;
19406;SDS011;9839;53.364;-1.204;2023-04-24T09:18:45;12.50;;;2.73;;
19406;SDS011;9839;53.364;-1.204;2023-04-24T09:21:11;13.20;;;2.67;;
19406;SDS011;9839;53.364;-1.204;2023-04-24T09:23:36;12.10;;;2.50;;
19406;SDS011;9839;53.364;-1.204;2023-04-24T09:26:02;12.50;;;2.80;;
19406;SDS011;9839;53.364;-1.204;2023-04-24T09:28:35;16.63;;;2.53;;
19406;SDS011;9839;53.364;-1.204;2023-04-24T09:31:23;10.33;;;2.43;;
19406;SDS011;9839;53.364;-1.204;2023-04-24T09:33:54;9.53;;;2.43;;
19406;SDS011;9839;53.364;-1.204;2023-04-24T09:36:54;13.13;;;2.60;;
19406;SDS011;9839;53.364;-1.204;2023-04-24T09:39:13;8.10;;;2.40;;
19406;SDS011;9839;53.364;-1.204;2023-04-24T09:42:13;9.13;;;2.57;;
19406;SDS011;9839;53.364;-1.204;2023-04-24T09:44:33;8.10;;;2.47;;
19406;SDS011;9839;53.364;-1.204;2023-04-24T09:46:59;13.23;;;3.00;;
19406;SDS011;9839;53.364;-1.204;2023-04-24T09:49:29;10.83;;;2.53;;
19406;SDS011;9839;53.364;-1.204;2023-04-24T09:52:08;9.73;;;1.80;;
19406;SDS011;9839;53.364;-1.204;2023-04-24T09:54:35;6.30;;;1.87;;
19406;SDS011;9839;53.364;-1.204;2023-04-24T09:57:04;11.20;;;2.00;;
19406;SDS011;9839;53.364;-1.204;2023-04-24T09:59:32;8.97;;;1.83;;
19406;SDS011;9839;53.364;-1.204;2023-04-24T10:01:57;5.00;;;1.90;;
19406;SDS011;9839;53.364;-1.204;2023-04-24T10:04:27;12.53;;;2.30;;
19406;SDS011;9839;53.364;-1.204;2023-04-24T10:06:54;10.23;;;2.67;;
19406;SDS011;9839;53.364;-1.204;2023-04-24T10:09:22;10.10;;;2.80;;
19406;SDS011;9839;53.364;-1.204;2023-04-24T10:11:50;6.97;;;1.70;;
19406;SDS011;9839;53.364;-1.204;2023-04-24T10:14:17;11.53;;;2.07;;
19406;SDS011;9839;53.364;-1.204;2023-04-24T10:16:45;8.03;;;2.73;;
19406;SDS011;9839;53.364;-1.204;2023-04-24T10:19:14;9.73;;;2.20;;
19406;SDS011;9839;53.364;-1.204;2023-04-24T10:21:41;6.97;;;2.27;;
19406;SDS011;9839;53.364;-1.204;2023-04-24T10:24:10;14.90;;;2.80;;
19406;SDS011;9839;53.364;-1.204;2023-04-24T10:26:37;6.70;;;2.40;;
19406;SDS011;9839;53.364;-1.204;2023-04-24T10:29:03;11.13;;;2.27;;
19406;SDS011;9839;53.364;-1.204;2023-04-24T10:31:31;12.50;;;2.47;;
19406;SDS011;9839;53.364;-1.204;2023-04-24T10:33:58;7.10;;;2.37;;
19406;SDS011;9839;53.364;-1.204;2023-04-24T10:36:23;16.23;;;2.73;;
19406;SDS011;9839;53.364;-1.204;2023-04-24T10:38:51;12.83;;;3.40;;
19406;SDS011;9839;53.364;-1.204;2023-04-24T10:41:18;11.40;;;2.43;;
19406;SDS011;9839;53.364;-1.204;2023-04-24T10:43:48;10.20;;;2.43;;
19406;SDS011;9839;53.364;-1.204;2023-04-24T10:46:24;13.60;;;3.00;;
19406;SDS011;9839;53.364;-1.204;2023-04-24T10:48:53;10.27;;;3.17;;
19406;SDS011;9839;53.364;-1.204;2023-04-24T10:51:21;11.27;;;2.80;;
19406;SDS011;9839;53.364;-1.204;2023-04-24T10:53:47;8.23;;;2.60;;
19406;SDS011;9839;53.364;-1.204;2023-04-24T10:56:15;11.30;;;3.00;;
19406;SDS011;9839;53.364;-1.204;2023-04-24T10:58:42;10.97;;;2.50;;
19406;SDS011;9839;53.364;-1.204;2023-04-24T11:01:29;9.53;;;2.73;;
19406;SDS011;9839;53.364;-1.204;2023-04-24T11:04:00;10.80;;;3.13;;
19406;SDS011;9839;53.364;-1.204;2023-04-24T11:06:33;7.93;;;2.47;;
19406;SDS011;9839;53.364;-1.204;2023-04-24T11:09:09;6.67;;;2.53;;
19406;SDS011;9839;53.364;-1.204;2023-04-24T11:11:38;7.97;;;3.10;;
19406;SDS011;9839;53.364;-1.204;2023-04-24T11:14:07;11.37;;;2.77;;
19406;SDS011;9839;53.364;-1.204;2023-04-24T11:19:05;9.17;;;2.90;;
19406;SDS011;9839;53.364;-1.204;2023-04-24T11:21:43;12.20;;;2.83;;
19406;SDS011;9839;53.364;-1.204;2023-04-24T11:26:59;11.93;;;2.90;;
19406;SDS011;9839;53.364;-1.204;2023-04-24T11:34:51;8.47;;;2.37;;
19406;SDS011;9839;53.364;-1.204;2023-04-24T11:37:18;9.23;;;2.50;;
19406;SDS011;9839;53.364;-1.204;2023-04-24T11:39:43;8.73;;;2.50;;
19406;SDS011;9839;53.364;-1.204;2023-04-24T11:42:09;7.03;;;2.10;;
19406;SDS011;9839;53.364;-1.204;2023-04-24T11:44:35;11.53;;;2.30;;
19406;SDS011;9839;53.364;-1.204;2023-04-24T11:47:03;14.57;;;2.20;;
19406;SDS011;9839;53.364;-1.204;2023-04-24T11:49:37;7.87;;;2.23;;
19406;SDS011;9839;53.364;-1.204;2023-04-24T11:52:03;9.77;;;2.40;;
19406;SDS011;9839;53.364;-1.204;2023-04-24T11:54:29;13.33;;;2.40;;
19406;SDS011;9839;53.364;-1.204;2023-04-24T11:56:55;11.70;;;2.30;;
19406;SDS011;9839;53.364;-1.204;2023-04-24T11:59:21;8.67;;;2.33;;
19406;SDS011;9839;53.364;-1.204;2023-04-24T12:01:47;7.87;;;1.60;;
19406;SDS011;9839;53.364;-1.204;2023-04-24T12:04:14;14.77;;;2.27;;
19406;SDS011;9839;53.364;-1.204;2023-04-24T12:06:40;4.67;;;1.70;;
19406;SDS011;9839;53.364;-1.204;2023-04-24T12:09:24;8.57;;;1.97;;
19406;SDS011;9839;53.364;-1.204;2023-04-24T12:11:56;8.30;;;2.27;;
19406;SDS011;9839;53.364;-1.204;2023-04-24T12:14:24;9.17;;;2.13;;
19406;SDS011;9839;53.364;-1.204;2023-04-24T12:16:50;12.83;;;2.83;;
19406;SDS011;9839;53.364;-1.204;2023-04-24T12:19:22;6.70;;;2.10;;
19406;SDS011;9839;53.364;-1.204;2023-04-24T12:22:09;9.30;;;2.70;;
19406;SDS011;9839;53.364;-1.204;2023-04-24T12:24:34;10.52;;;2.47;;
19406;SDS011;9839;53.364;-1.204;2023-04-24T12:26:59;6.95;;;2.15;;
19406;SDS011;9839;53.364;-1.204;2023-04-24T12:29:26;8.20;;;2.58;;
19406;SDS011;9839;53.364;-1.204;2023-04-24T12:31:51;9.63;;;2.60;;
19406;SDS011;9839;53.364;-1.204;2023-04-24T12:34:20;13.00;;;2.75;;
19406;SDS011;9839;53.364;-1.204;2023-04-24T12:36:47;16.05;;;2.63;;
19406;SDS011;9839;53.364;-1.204;2023-04-24T12:39:16;8.85;;;2.35;;
19406;SDS011;9839;53.364;-1.204;2023-04-24T12:41:55;5.50;;;2.05;;
19406;SDS011;9839;53.364;-1.204;2023-04-24T12:44:32;5.15;;;1.77;;
19406;SDS011;9839;53.364;-1.204;2023-04-24T12:46:59;5.72;;;1.52;;
19406;SDS011;9839;53.364;-1.204;2023-04-24T12:49:25;5.68;;;2.10;;
19406;SDS011;9839;53.364;-1.204;2023-04-24T12:51:51;6.88;;;1.90;;
19406;SDS011;9839;53.364;-1.204;2023-04-24T12:54:17;8.00;;;3.00;;
19406;SDS011;9839;53.364;-1.204;2023-04-24T12:56:42;10.63;;;2.05;;
19406;SDS011;9839;53.364;-1.204;2023-04-24T12:59:08;6.15;;;1.95;;
19406;SDS011;9839;53.364;-1.204;2023-04-24T13:01:33;6.80;;;1.63;;
19406;SDS011;9839;53.364;-1.204;2023-04-24T13:03:59;7.72;;;1.90;;
19406;SDS011;9839;53.364;-1.204;2023-04-24T13:06:24;7.47;;;1.92;;
19406;SDS011;9839;53.364;-1.204;2023-04-24T13:08:51;5.40;;;2.45;;
19406;SDS011;9839;53.364;-1.204;2023-04-24T13:11:16;12.25;;;1.92;;
19406;SDS011;9839;53.364;-1.204;2023-04-24T13:13:42;8.30;;;2.20;;
19406;SDS011;9839;53.364;-1.204;2023-04-24T13:16:08;8.80;;;2.27;;
19406;SDS011;9839;53.364;-1.204;2023-04-24T13:18:33;8.93;;;2.20;;
19406;SDS011;9839;53.364;-1.204;2023-04-24T13:20:59;13.87;;;1.93;;
19406;SDS011;9839;53.364;-1.204;2023-04-24T13:23:24;6.03;;;2.00;;
19406;SDS011;9839;53.364;-1.204;2023-04-24T13:25:50;12.40;;;2.70;;
19406;SDS011;9839;53.364;-1.204;2023-04-24T13:28:15;14.63;;;2.30;;
19406;SDS011;9839;53.364;-1.204;2023-04-24T13:30:40;13.23;;;2.57;;
19406;SDS011;9839;53.364;-1.204;2023-04-24T13:33:06;8.90;;;2.00;;
19406;SDS011;9839;53.364;-1.204;2023-04-24T13:35:31;6.53;;;2.20;;
19406;SDS011;9839;53.364;-1.204;2023-04-24T13:37:57;10.10;;;2.80;;
19406;SDS011;9839;53.364;-1.204;2023-04-24T13:40:23;5.03;;;1.73;;
19406;SDS011;9839;53.364;-1.204;2023-04-24T13:42:48;8.07;;;2.17;;
19406;SDS011;9839;53.364;-1.204;2023-04-24T13:45:14;8.07;;;2.00;;
19406;SDS011;9839;53.364;-1.204;2023-04-24T13:47:40;12.73;;;2.27;;
19406;SDS011;9839;53.364;-1.204;2023-04-24T13:50:06;7.80;;;1.90;;
19406;SDS011;9839;53.364;-1.204;2023-04-24T13:52:33;5.73;;;1.60;;
19406;SDS011;9839;53.364;-1.204;2023-04-24T13:54:58;12.10;;;1.73;;
19406;SDS011;9839;53.364;-1.204;2023-04-24T13:57:24;8.33;;;1.97;;
19406;SDS011;9839;53.364;-1.204;2023-04-24T13:59:50;7.30;;;1.73;;
19406;SDS011;9839;53.364;-1.204;2023-04-24T14:02:15;6.07;;;1.53;;
19406;SDS011;9839;53.364;-1.204;2023-04-24T14:04:40;9.53;;;2.20;;
19406;SDS011;9839;53.364;-1.204;2023-04-24T14:07:06;8.80;;;2.07;;
19406;SDS011;9839;53.364;-1.204;2023-04-24T14:09:33;8.70;;;1.87;;
19406;SDS011;9839;53.364;-1.204;2023-04-24T14:11:58;6.00;;;1.60;;
19406;SDS011;9839;53.364;-1.204;2023-04-24T14:14:24;11.27;;;2.03;;
19406;SDS011;9839;53.364;-1.204;2023-04-24T14:16:49;9.10;;;2.23;;
19406;SDS011;9839;53.364;-1.204;2023-04-24T14:19:15;10.60;;;1.90;;
19406;SDS011;9839;53.364;-1.204;2023-04-24T14:21:40;4.73;;;1.80;;
19406;SDS011;9839;53.364;-1.204;2023-04-24T14:24:06;5.43;;;1.97;;
19406;SDS011;9839;53.364;-1.204;2023-04-24T14:26:31;5.87;;;1.60;;
19406;SDS011;9839;53.364;-1.204;2023-04-24T14:28:57;9.20;;;2.17;;
19406;SDS011;9839;53.364;-1.204;2023-04-24T14:31:23;8.07;;;1.60;;
19406;SDS011;9839;53.364;-1.204;2023-04-24T14:33:49;5.40;;;1.80;;
19406;SDS011;9839;53.364;-1.204;2023-04-24T14:36:14;5.73;;;1.57;;
19406;SDS011;9839;53.364;-1.204;2023-04-24T14:38:40;3.87;;;1.70;;
19406;SDS011;9839;53.364;-1.204;2023-04-24T14:41:05;11.93;;;2.00;;
19406;SDS011;9839;53.364;-1.204;2023-04-24T14:43:34;11.00;;;1.57;;
19406;SDS011;9839;53.364;-1.204;2023-04-24T14:46:00;6.60;;;1.67;;
19406;SDS011;9839;53.364;-1.204;2023-04-24T14:48:26;10.87;;;2.30;;
19406;SDS011;9839;53.364;-1.204;2023-04-24T14:50:51;7.60;;;2.10;;